createdAt,value
2018-03-24T00:02:05.250Z,45.40
2018-03-24T00:04:31.831Z,43.45
2018-03-24T00:06:58.356Z,47.78
2018-03-24T00:09:24.882Z,42.55
2018-03-24T00:11:51.397Z,43.00
2018-03-24T00:14:17.943Z,49.00
2018-03-24T00:16:44.400Z,43.13
2018-03-24T00:19:10.912Z,41.95
2018-03-24T00:21:37.386Z,47.85
2018-03-24T00:24:03.863Z,41.58
2018-03-24T00:26:30.325Z,43.42
2018-03-24T00:28:56.836Z,43.58
2018-03-24T00:31:24.751Z,40.40
2018-03-24T00:33:51.944Z,43.60
2018-03-24T00:36:18.622Z,44.13
2018-03-24T00:38:45.955Z,48.63
2018-03-24T00:41:12.436Z,41.63
2018-03-24T00:43:39.043Z,43.30
2018-03-24T00:46:05.658Z,45.83
2018-03-24T00:48:32.183Z,37.83
2018-03-24T00:50:58.681Z,48.65
2018-03-24T00:53:25.150Z,46.55
2018-03-24T00:55:51.613Z,44.45
2018-03-24T00:58:18.070Z,46.75
2018-03-24T01:00:44.548Z,50.72
2018-03-24T01:03:11.029Z,51.25
2018-03-24T01:05:37.527Z,44.90
2018-03-24T01:08:03.991Z,42.35
2018-03-24T01:10:30.570Z,45.50
2018-03-24T01:12:57.779Z,46.15
2018-03-24T01:15:24.312Z,45.78
2018-03-24T01:17:50.897Z,46.75
2018-03-24T01:20:18.179Z,44.22
2018-03-24T01:22:45.436Z,46.03
2018-03-24T01:25:11.893Z,40.08
2018-03-24T01:27:38.352Z,48.13
2018-03-24T01:30:05.523Z,43.25
2018-03-24T01:32:32.749Z,47.55
2018-03-24T01:34:59.209Z,49.67
2018-03-24T01:37:25.687Z,51.65
2018-03-24T01:39:52.153Z,48.78
2018-03-24T01:42:19.460Z,47.33
2018-03-24T01:44:45.909Z,50.50
2018-03-24T01:47:12.466Z,48.15
2018-03-24T01:49:38.941Z,43.33
2018-03-24T01:52:05.486Z,45.63
2018-03-24T01:54:31.973Z,48.05
2018-03-24T01:56:58.522Z,29.55
2018-03-24T01:59:25.827Z,45.65
2018-03-24T02:01:52.280Z,28.90
2018-03-24T02:04:18.744Z,49.38
2018-03-24T02:06:46.043Z,29.02
2018-03-24T02:09:12.529Z,21.45
2018-03-24T02:11:39.735Z,44.00
2018-03-24T02:14:06.291Z,39.22
2018-03-24T02:16:32.740Z,32.20
2018-03-24T02:18:59.999Z,27.75
2018-03-24T02:21:30.153Z,32.85
2018-03-24T02:23:56.614Z,25.92
2018-03-24T02:26:23.203Z,26.85
2018-03-24T02:28:50.424Z,27.48
2018-03-24T02:31:16.912Z,40.28
2018-03-24T02:33:43.377Z,31.67
2018-03-24T02:36:09.813Z,31.37
2018-03-24T02:38:36.300Z,41.28
2018-03-24T02:41:02.819Z,29.55
2018-03-24T02:43:30.108Z,38.95
2018-03-24T02:45:56.596Z,48.00
2018-03-24T02:48:23.923Z,38.72
2018-03-24T02:50:50.402Z,37.38
2018-03-24T02:53:16.858Z,36.65
2018-03-24T02:55:43.317Z,36.40
2018-03-24T02:58:09.824Z,51.17
2018-03-24T03:00:36.289Z,51.00
2018-03-24T03:03:02.790Z,51.25
2018-03-24T03:05:29.278Z,49.80
2018-03-24T03:07:55.799Z,35.40
2018-03-24T03:10:22.299Z,57.05
2018-03-24T03:12:48.846Z,37.75
2018-03-24T03:15:15.364Z,40.75
2018-03-24T03:17:41.886Z,49.35
2018-03-24T03:20:08.453Z,49.35
2018-03-24T03:22:35.067Z,31.87
2018-03-24T03:25:01.580Z,50.90
2018-03-24T03:27:28.836Z,27.40
2018-03-24T03:29:56.027Z,29.98
2018-03-24T03:32:25.506Z,20.50
2018-03-24T03:34:51.999Z,47.42
2018-03-24T03:37:18.812Z,37.75
2018-03-24T03:39:45.320Z,51.15
2018-03-24T03:42:11.866Z,41.53
2018-03-24T03:44:38.352Z,33.83
2018-03-24T03:47:04.868Z,47.80
2018-03-24T03:49:31.344Z,45.17
2018-03-24T03:51:57.860Z,21.58
2018-03-24T03:54:25.048Z,44.38
2018-03-24T03:56:51.544Z,35.47
2018-03-24T03:59:18.961Z,38.25
2018-03-24T04:01:45.430Z,34.42
2018-03-24T04:04:11.937Z,32.78
2018-03-24T04:06:38.392Z,36.85
2018-03-24T04:09:04.895Z,44.97
2018-03-24T04:11:31.362Z,49.85
2018-03-24T04:13:59.202Z,44.65
2018-03-24T04:16:25.763Z,44.95
2018-03-24T04:18:52.302Z,43.90
2018-03-24T04:21:19.553Z,51.25
2018-03-24T04:23:46.766Z,48.35
2018-03-24T04:26:13.361Z,46.45
2018-03-24T04:28:40.613Z,47.35
2018-03-24T04:31:07.833Z,52.10
2018-03-24T04:33:34.331Z,32.83
2018-03-24T04:36:00.853Z,47.50
2018-03-24T04:38:27.349Z,47.00
2018-03-24T04:40:53.876Z,52.35
2018-03-24T04:43:21.199Z,49.92
2018-03-24T04:45:47.693Z,48.47
2018-03-24T04:48:14.900Z,52.90
2018-03-24T04:50:42.225Z,48.75
2018-03-24T04:53:08.861Z,47.55
2018-03-24T04:55:35.330Z,53.28
2018-03-24T04:58:01.796Z,53.38
2018-03-24T05:00:29.047Z,55.53
2018-03-24T05:02:56.278Z,43.72
2018-03-24T05:05:22.872Z,53.22
2018-03-24T05:07:49.306Z,55.08
2018-03-24T05:10:15.809Z,58.30
2018-03-24T05:12:42.996Z,48.50
2018-03-24T05:15:09.527Z,52.45
2018-03-24T05:17:36.096Z,58.28
2018-03-24T05:20:02.584Z,47.90
2018-03-24T05:22:29.130Z,50.88
2018-03-24T05:24:55.620Z,49.13
2018-03-24T05:27:22.935Z,50.38
2018-03-24T05:29:49.611Z,53.60
2018-03-24T05:32:16.899Z,61.08
2018-03-24T05:34:43.389Z,49.50
2018-03-24T05:37:09.867Z,56.47
2018-03-24T05:39:36.356Z,52.25
2018-03-24T05:42:02.834Z,51.10
2018-03-24T05:44:29.347Z,53.45
2018-03-24T05:46:56.547Z,50.60
2018-03-24T05:49:23.079Z,51.40
2018-03-24T05:51:49.541Z,47.60
2018-03-24T05:54:16.077Z,49.20
2018-03-24T05:56:42.516Z,45.60
2018-03-24T05:59:08.993Z,41.40
2018-03-24T06:01:35.598Z,38.90
2018-03-24T06:04:02.829Z,39.05
2018-03-24T06:06:29.316Z,38.33
2018-03-24T06:08:55.806Z,38.00
2018-03-24T06:11:22.271Z,39.28
2018-03-24T06:13:48.703Z,43.95
2018-03-24T06:16:15.249Z,39.17
2018-03-24T06:18:41.727Z,34.03
2018-03-24T06:21:08.214Z,43.08
2018-03-24T06:23:34.741Z,29.35
2018-03-24T06:26:01.175Z,36.95
2018-03-24T06:28:27.739Z,38.83
2018-03-24T06:31:09.027Z,41.60
2018-03-24T06:33:35.527Z,35.45
2018-03-24T06:36:16.931Z,18.40
2018-03-24T06:38:43.422Z,43.33
2018-03-24T06:41:09.894Z,37.35
2018-03-24T06:43:36.434Z,29.80
2018-03-24T06:46:02.936Z,33.75
2018-03-24T06:48:30.168Z,31.37
2018-03-24T06:50:56.657Z,33.15
2018-03-24T06:53:23.108Z,26.05
2018-03-24T06:55:49.599Z,35.00
2018-03-24T06:58:16.113Z,27.75
2018-03-24T07:00:43.343Z,15.65
2018-03-24T07:03:09.846Z,29.73
2018-03-24T07:05:37.276Z,30.02
2018-03-24T07:08:03.771Z,39.10
2018-03-24T07:10:30.310Z,36.08
2018-03-24T07:12:56.911Z,24.40
2018-03-24T07:15:23.502Z,25.20
2018-03-24T07:17:50.671Z,28.60
2018-03-24T07:20:17.203Z,24.77
2018-03-24T07:22:43.903Z,39.72
2018-03-24T07:25:10.416Z,37.05
2018-03-24T07:27:36.911Z,27.37
2018-03-24T07:30:03.383Z,25.42
2018-03-24T07:32:29.913Z,23.05
2018-03-24T07:34:56.382Z,35.28
2018-03-24T07:37:23.771Z,23.60
2018-03-24T07:39:50.305Z,27.60
2018-03-24T07:42:16.860Z,28.52
2018-03-24T07:44:43.395Z,30.03
2018-03-24T07:47:09.895Z,28.40
2018-03-24T07:49:37.101Z,20.73
2018-03-24T07:52:03.575Z,26.10
2018-03-24T07:54:30.867Z,18.45
2018-03-24T07:56:57.312Z,27.37
2018-03-24T07:59:31.035Z,24.67
2018-03-24T08:01:57.491Z,20.63
2018-03-24T08:04:24.887Z,23.10
2018-03-24T08:06:51.340Z,21.73
2018-03-24T08:09:26.018Z,18.27
2018-03-24T08:11:53.271Z,20.12
2018-03-24T08:14:20.545Z,24.92
2018-03-24T08:16:47.006Z,26.40
2018-03-24T08:19:13.499Z,21.90
2018-03-24T08:21:39.966Z,17.92
2018-03-24T08:24:06.645Z,19.27
2018-03-24T08:26:33.080Z,18.15
2018-03-24T08:28:59.665Z,18.90
2018-03-24T08:31:26.298Z,23.00
2018-03-24T08:33:52.773Z,14.38
2018-03-24T08:36:19.286Z,13.15
2018-03-24T08:38:45.887Z,16.90
2018-03-24T08:41:12.431Z,16.15
2018-03-24T08:43:38.912Z,18.08
2018-03-24T08:46:05.644Z,13.68
2018-03-24T08:48:32.243Z,11.50
2018-03-24T08:50:58.907Z,14.95
2018-03-24T08:53:26.301Z,17.33
2018-03-24T08:55:53.530Z,11.20
2018-03-24T08:58:20.087Z,14.60
2018-03-24T09:00:59.010Z,17.95
2018-03-24T09:03:26.291Z,11.20
2018-03-24T09:05:52.794Z,17.77
2018-03-24T09:08:20.080Z,11.55
2018-03-24T09:10:46.604Z,11.07
2018-03-24T09:13:13.139Z,10.20
2018-03-24T09:15:39.683Z,13.88
2018-03-24T09:18:06.257Z,11.23
2018-03-24T09:20:32.768Z,8.13
2018-03-24T09:22:59.295Z,8.18
2018-03-24T09:25:25.769Z,12.20
2018-03-24T09:27:52.391Z,10.85
2018-03-24T09:30:18.877Z,5.85
2018-03-24T09:32:46.144Z,9.77
2018-03-24T09:35:12.881Z,7.80
2018-03-24T09:37:39.402Z,14.18
2018-03-24T09:40:06.045Z,11.50
2018-03-24T09:42:33.342Z,10.07
2018-03-24T09:44:59.807Z,11.30
2018-03-24T09:47:26.360Z,9.45
2018-03-24T09:49:53.080Z,12.50
2018-03-24T09:52:19.582Z,10.13
2018-03-24T09:54:46.317Z,11.75
2018-03-24T09:57:12.823Z,10.97
2018-03-24T09:59:39.322Z,8.40
2018-03-24T10:02:05.700Z,10.40
2018-03-24T10:04:32.137Z,8.13
2018-03-24T10:06:58.559Z,8.93
2018-03-24T10:09:25.071Z,8.35
2018-03-24T10:11:52.494Z,7.20
2018-03-24T10:14:19.258Z,7.23
2018-03-24T10:16:46.584Z,9.67
2018-03-24T10:19:13.235Z,6.65
2018-03-24T10:24:38.531Z,7.97
2018-03-24T10:27:04.958Z,6.95
2018-03-24T10:29:31.464Z,13.13
2018-03-24T10:31:58.006Z,10.95
2018-03-24T10:34:25.503Z,12.30
2018-03-24T10:36:52.040Z,13.43
2018-03-24T10:39:18.544Z,12.50
2018-03-24T10:41:44.978Z,9.73
2018-03-24T10:44:12.143Z,10.40
2018-03-24T10:46:38.621Z,6.80
2018-03-24T10:49:05.054Z,6.43
2018-03-24T10:51:31.549Z,8.50
2018-03-24T10:53:57.903Z,8.60
2018-03-24T10:56:24.371Z,7.70
2018-03-24T10:58:50.772Z,8.80
2018-03-24T11:01:20.091Z,8.47
2018-03-24T11:03:46.666Z,6.77
2018-03-24T11:06:13.805Z,9.57
2018-03-24T11:08:40.995Z,5.63
2018-03-24T11:11:07.519Z,6.13
2018-03-24T11:13:34.276Z,6.57
2018-03-24T11:16:00.780Z,6.80
2018-03-24T11:18:27.278Z,16.27
2018-03-24T11:20:53.736Z,8.70
2018-03-24T11:23:20.412Z,9.60
2018-03-24T11:25:46.973Z,9.97
2018-03-24T11:28:13.606Z,10.30
2018-03-24T11:30:40.813Z,11.17
2018-03-24T11:33:07.304Z,5.83
2018-03-24T11:35:33.778Z,13.13
2018-03-24T11:38:00.282Z,11.40
2018-03-24T11:40:26.759Z,10.20
2018-03-24T11:42:53.197Z,8.87
2018-03-24T11:45:19.836Z,10.37
2018-03-24T11:47:46.306Z,8.10
2018-03-24T11:50:12.768Z,9.60
2018-03-24T11:52:39.129Z,9.33
2018-03-24T11:55:05.589Z,10.60
2018-03-24T11:57:32.091Z,12.50
2018-03-24T12:00:04.486Z,10.73
2018-03-24T12:02:30.883Z,7.60
2018-03-24T12:04:57.376Z,8.80
2018-03-24T12:07:23.871Z,10.80
2018-03-24T12:09:50.289Z,12.37
2018-03-24T12:12:16.762Z,11.60
2018-03-24T12:14:43.289Z,9.20
2018-03-24T12:17:09.764Z,7.23
2018-03-24T12:19:36.665Z,13.03
2018-03-24T12:22:03.046Z,11.73
2018-03-24T12:24:30.202Z,7.57
2018-03-24T12:26:56.905Z,11.17
2018-03-24T12:29:23.281Z,10.90
2018-03-24T12:31:49.687Z,10.83
2018-03-24T12:34:16.804Z,14.50
2018-03-24T12:36:43.250Z,12.53
2018-03-24T12:39:09.605Z,13.70
2018-03-24T12:41:36.051Z,17.40
2018-03-24T12:44:03.295Z,12.87
2018-03-24T12:46:31.031Z,12.40
2018-03-24T12:48:58.311Z,14.33
2018-03-24T12:51:25.512Z,9.40
2018-03-24T12:53:51.910Z,10.60
2018-03-24T12:56:18.386Z,10.00
2018-03-24T12:58:44.784Z,10.57
2018-03-24T13:01:11.309Z,16.17
2018-03-24T13:03:37.719Z,13.60
2018-03-24T13:06:04.144Z,9.43
2018-03-24T13:08:31.495Z,11.93
2018-03-24T13:10:58.578Z,11.20
2018-03-24T13:13:25.009Z,8.83
2018-03-24T13:15:51.442Z,9.33
2018-03-24T13:18:17.930Z,17.60
2018-03-24T13:20:44.320Z,14.23
2018-03-24T13:23:11.532Z,16.43
2018-03-24T13:25:38.819Z,15.63
2018-03-24T13:28:05.388Z,11.80
2018-03-24T13:30:31.794Z,17.43
2018-03-24T13:32:58.351Z,11.50
2018-03-24T13:35:24.858Z,16.73
2018-03-24T13:37:51.345Z,10.07
2018-03-24T13:40:18.617Z,11.33
2018-03-24T13:42:44.984Z,13.23
2018-03-24T13:45:11.380Z,15.17
2018-03-24T13:47:37.724Z,15.27
2018-03-24T13:50:04.111Z,10.07
2018-03-24T13:52:30.473Z,14.53
2018-03-24T13:54:56.946Z,11.20
2018-03-24T13:57:24.123Z,15.43
2018-03-24T13:59:50.483Z,16.17
2018-03-24T14:02:16.860Z,16.60
2018-03-24T14:04:43.326Z,14.93
2018-03-24T14:07:09.900Z,11.50
2018-03-24T14:09:36.241Z,14.47
2018-03-24T14:12:03.950Z,16.33
2018-03-24T14:14:30.457Z,15.23
2018-03-24T14:16:57.067Z,13.47
2018-03-24T14:19:23.449Z,14.27
2018-03-24T14:21:49.834Z,13.80
2018-03-24T14:24:16.211Z,11.43
2018-03-24T14:26:42.612Z,14.40
2018-03-24T14:29:09.841Z,13.90
2018-03-24T14:31:36.296Z,12.03
2018-03-24T14:34:02.796Z,17.30
2018-03-24T14:36:29.208Z,14.30
2018-03-24T14:38:56.372Z,14.63
2018-03-24T14:41:23.580Z,15.40
2018-03-24T14:43:50.137Z,12.00
2018-03-24T14:46:17.431Z,14.17
2018-03-24T14:48:44.047Z,16.10
2018-03-24T14:51:10.433Z,17.93
2018-03-24T14:53:36.914Z,15.50
2018-03-24T14:56:03.461Z,17.47
2018-03-24T14:58:29.926Z,15.77
2018-03-24T15:00:56.341Z,18.23
2018-03-24T15:03:22.796Z,13.07
2018-03-24T15:05:49.238Z,17.03
2018-03-24T15:08:16.696Z,15.20
2018-03-24T15:10:45.672Z,14.53
2018-03-24T15:13:12.091Z,18.90
2018-03-24T15:15:38.626Z,17.30
2018-03-24T15:18:05.072Z,17.80
2018-03-24T15:20:31.637Z,12.80
2018-03-24T15:22:58.913Z,15.37
2018-03-24T15:25:25.361Z,17.57
2018-03-24T15:27:51.895Z,12.03
2018-03-24T15:30:30.597Z,11.57
2018-03-24T15:33:09.306Z,11.97
2018-03-24T15:35:36.538Z,15.10
2018-03-24T15:38:02.948Z,12.30
2018-03-24T15:40:30.159Z,16.97
2018-03-24T15:42:56.591Z,9.60
2018-03-24T15:45:23.125Z,16.87
2018-03-24T15:47:50.645Z,16.97
2018-03-24T15:50:17.269Z,15.60
2018-03-24T15:52:43.737Z,13.27
2018-03-24T15:55:10.872Z,14.83
2018-03-24T15:57:37.335Z,14.90
2018-03-24T16:00:03.794Z,15.13
2018-03-24T16:02:30.268Z,17.73
2018-03-24T16:04:56.819Z,16.17
2018-03-24T16:07:24.002Z,17.20
2018-03-24T16:09:50.538Z,13.00
2018-03-24T16:12:17.078Z,15.57
2018-03-24T16:14:43.614Z,11.60
2018-03-24T16:17:10.790Z,16.03
2018-03-24T16:19:37.247Z,14.30
2018-03-24T16:22:04.431Z,15.13
2018-03-24T16:24:30.893Z,9.73
2018-03-24T16:26:57.300Z,13.43
2018-03-24T16:29:23.877Z,18.90
2018-03-24T16:31:50.437Z,10.73
2018-03-24T16:34:17.702Z,10.37
2018-03-24T16:36:44.196Z,15.30
2018-03-24T16:39:10.696Z,15.40
2018-03-24T16:41:37.143Z,9.87
2018-03-24T16:44:04.681Z,12.57
2018-03-24T16:46:31.060Z,16.93
2018-03-24T16:48:57.575Z,15.50
2018-03-24T16:51:24.728Z,14.73
2018-03-24T16:53:51.304Z,15.93
2018-03-24T16:56:18.543Z,16.07
2018-03-24T16:58:45.800Z,17.03
2018-03-24T17:01:13.023Z,17.43
2018-03-24T17:03:40.043Z,12.90
2018-03-24T17:06:06.746Z,17.67
2018-03-24T17:08:33.270Z,17.17
2018-03-24T17:11:00.491Z,18.53
2018-03-24T17:13:26.925Z,13.93
2018-03-24T17:15:53.405Z,14.57
2018-03-24T17:18:19.837Z,19.25
2018-03-24T17:20:46.307Z,14.07
2018-03-24T17:23:12.727Z,21.83
2018-03-24T17:25:39.215Z,18.58
2018-03-24T17:28:05.672Z,17.65
2018-03-24T17:30:33.093Z,22.70
2018-03-24T17:32:59.583Z,23.17
2018-03-24T17:35:27.739Z,18.25
2018-03-24T17:37:55.105Z,19.55
2018-03-24T17:40:21.566Z,21.30
2018-03-24T17:42:48.134Z,18.87
2018-03-24T17:45:15.786Z,21.92
2018-03-24T17:47:43.148Z,23.08
2018-03-24T17:59:54.708Z,23.40
2018-03-24T18:02:21.187Z,27.13
2018-03-24T18:04:47.744Z,25.62
2018-03-24T18:07:14.237Z,24.80
2018-03-24T18:09:40.678Z,25.27
2018-03-24T18:12:08.029Z,25.83
2018-03-24T18:14:34.530Z,26.85
2018-03-24T18:17:01.022Z,29.33
2018-03-24T18:19:27.532Z,27.20
2018-03-24T18:21:53.963Z,30.55
2018-03-24T18:24:20.432Z,28.17
2018-03-24T18:26:46.907Z,25.85
2018-03-24T18:29:13.413Z,26.20
2018-03-24T18:31:40.588Z,29.20
2018-03-24T18:34:07.176Z,28.42
2018-03-24T18:36:33.614Z,27.67
2018-03-24T18:39:00.087Z,25.10
2018-03-24T18:41:26.555Z,21.98
2018-03-24T18:43:53.726Z,28.75
2018-03-24T18:46:20.291Z,30.23
2018-03-24T18:48:47.570Z,27.87
2018-03-24T18:51:14.005Z,25.55
2018-03-24T18:53:40.514Z,28.38
2018-03-24T18:56:07.726Z,22.35
2018-03-24T18:58:34.150Z,26.20
2018-03-24T19:01:00.657Z,29.70
2018-03-24T19:03:27.101Z,29.23
2018-03-24T19:05:53.578Z,26.65
2018-03-24T19:08:20.783Z,25.77
2018-03-24T19:10:47.387Z,25.85
2018-03-24T19:13:14.628Z,29.25
2018-03-24T19:15:41.857Z,23.90
2018-03-24T19:18:08.385Z,25.80
2018-03-24T19:20:34.968Z,27.58
2018-03-24T19:23:01.417Z,25.05
2018-03-24T19:25:27.976Z,29.23
2018-03-24T19:27:54.599Z,28.45
2018-03-24T19:30:21.043Z,25.90
2018-03-24T19:32:47.694Z,28.95
2018-03-24T19:35:14.140Z,27.15
2018-03-24T19:37:40.651Z,27.13
2018-03-24T19:40:07.121Z,33.65
2018-03-24T19:42:34.310Z,32.47
2018-03-24T19:45:00.752Z,30.92
2018-03-24T19:47:27.280Z,29.27
2018-03-24T19:49:53.742Z,26.48
2018-03-24T19:52:20.227Z,24.55
2018-03-24T19:54:46.759Z,32.13
2018-03-24T19:57:13.239Z,26.05
2018-03-24T19:59:39.810Z,31.17
2018-03-24T20:02:07.116Z,27.30
2018-03-24T20:04:33.569Z,24.65
2018-03-24T20:07:03.251Z,28.60
2018-03-24T20:09:32.631Z,27.62
2018-03-24T20:12:04.751Z,30.30
2018-03-24T20:14:32.707Z,32.80
2018-03-24T20:17:00.859Z,31.05
2018-03-24T20:19:30.029Z,36.15
2018-03-24T20:21:59.891Z,38.40
2018-03-24T20:24:28.022Z,38.40
2018-03-24T20:26:55.035Z,35.97
2018-03-24T20:29:22.260Z,30.98
2018-03-24T20:31:48.686Z,31.10
2018-03-24T20:34:15.167Z,34.00
2018-03-24T20:36:41.650Z,36.35
2018-03-24T20:39:08.135Z,37.92
2018-03-24T20:41:36.206Z,34.42
2018-03-24T20:47:01.494Z,31.05
2018-03-24T20:49:28.071Z,31.48
2018-03-24T20:51:55.934Z,27.67
2018-03-24T20:54:23.671Z,32.28
2018-03-24T20:56:50.247Z,36.92
2018-03-24T20:59:17.674Z,36.65
2018-03-24T21:01:44.299Z,30.00
2018-03-24T21:04:10.828Z,31.92
2018-03-24T21:06:38.284Z,33.03
2018-03-24T21:09:04.987Z,33.63
2018-03-24T21:11:35.254Z,30.50
2018-03-24T21:14:02.058Z,33.45
2018-03-24T21:16:28.532Z,32.45
2018-03-24T21:18:55.805Z,35.38
2018-03-24T21:21:23.036Z,34.28
2018-03-24T21:23:49.612Z,31.17
2018-03-24T21:26:16.115Z,31.42
2018-03-24T21:28:44.923Z,36.13
2018-03-24T21:31:11.571Z,35.80
2018-03-24T21:33:38.157Z,36.20
2018-03-24T21:36:05.589Z,34.80
2018-03-24T21:38:32.221Z,41.08
2018-03-24T21:40:58.759Z,29.77
2018-03-24T21:43:25.704Z,36.42
2018-03-24T21:45:52.308Z,37.58
2018-03-24T21:48:19.970Z,37.38
2018-03-24T21:50:47.386Z,40.50
2018-03-24T21:53:13.905Z,29.12
2018-03-24T21:55:40.716Z,44.28
2018-03-24T21:58:07.227Z,35.28
2018-03-24T22:00:34.518Z,37.08
2018-03-24T22:03:01.037Z,39.50
2018-03-24T22:05:27.568Z,35.40
2018-03-24T22:07:54.082Z,38.58
2018-03-24T22:10:20.656Z,42.15
2018-03-24T22:12:48.809Z,36.83
2018-03-24T22:15:15.550Z,36.63
2018-03-24T22:17:42.116Z,38.10
2018-03-24T22:20:08.691Z,34.15
2018-03-24T22:22:35.294Z,40.30
2018-03-24T22:25:01.800Z,39.33
2018-03-24T22:27:28.364Z,34.53
2018-03-24T22:29:54.888Z,37.58
2018-03-24T22:32:21.389Z,38.90
2018-03-24T22:34:47.972Z,39.08
2018-03-24T22:37:14.513Z,36.10
2018-03-24T22:39:41.082Z,39.83
2018-03-24T22:42:08.269Z,34.90
2018-03-24T22:44:34.798Z,33.85
2018-03-24T22:47:01.312Z,65.53
2018-03-24T22:49:27.855Z,55.38
2018-03-24T22:51:55.049Z,49.30
2018-03-24T22:54:22.366Z,40.78
2018-03-24T22:56:49.646Z,53.10
2018-03-24T22:59:16.188Z,46.72
2018-03-24T23:01:42.728Z,43.97
2018-03-24T23:04:09.247Z,66.43
2018-03-24T23:06:35.840Z,49.38
2018-03-24T23:09:03.090Z,44.80
2018-03-24T23:11:29.703Z,44.38
2018-03-24T23:13:56.311Z,50.88
2018-03-24T23:16:22.866Z,41.72
2018-03-24T23:18:49.420Z,40.53
2018-03-24T23:21:15.968Z,43.70
2018-03-24T23:23:42.481Z,44.78
2018-03-24T23:26:09.007Z,32.83
2018-03-24T23:28:35.540Z,32.97
2018-03-24T23:31:01.981Z,33.97
2018-03-24T23:33:28.532Z,36.25
2018-03-24T23:35:55.016Z,44.38
2018-03-24T23:38:21.475Z,36.83
2018-03-24T23:40:48.024Z,39.35
2018-03-24T23:43:14.604Z,31.67
2018-03-24T23:45:41.891Z,38.00
2018-03-24T23:48:08.323Z,33.67
2018-03-24T23:50:35.048Z,38.53
2018-03-24T23:53:01.504Z,35.45
2018-03-24T23:55:28.050Z,39.05
2018-03-24T23:57:54.520Z,36.13
